createdAt,value
2024-02-29T00:01:57.186Z,97021.47
2024-02-29T00:04:27.448Z,97023.00
2024-02-29T00:06:59.399Z,97019.91
2024-02-29T00:09:27.413Z,97020.34
2024-02-29T00:11:56.094Z,97014.19
2024-02-29T00:14:24.148Z,97015.72
2024-02-29T00:16:52.413Z,97004.75
2024-02-29T00:19:21.584Z,97013.44
2024-02-29T00:21:50.015Z,97011.84
2024-02-29T00:24:17.871Z,97006.69
2024-02-29T00:26:46.023Z,97002.72
2024-02-29T00:29:14.000Z,97003.97
2024-02-29T00:31:46.021Z,97007.72
2024-02-29T00:34:14.242Z,96997.22
2024-02-29T00:36:42.576Z,97002.28
2024-02-29T00:39:14.870Z,97004.31
2024-02-29T00:41:43.762Z,96996.88
2024-02-29T00:44:12.078Z,96990.59
2024-02-29T00:46:42.730Z,97009.38
2024-02-29T00:49:10.882Z,97000.00
2024-02-29T00:51:39.744Z,97001.00
2024-02-29T00:54:07.662Z,96984.09
2024-02-29T00:56:36.073Z,96981.81
2024-02-29T00:59:04.131Z,96996.78
2024-02-29T01:01:35.055Z,96991.34
2024-02-29T01:04:03.200Z,96981.88
2024-02-29T01:06:31.460Z,96995.97
2024-02-29T01:08:59.538Z,96988.16
2024-02-29T01:11:27.809Z,96983.84
2024-02-29T01:13:55.793Z,96986.94
2024-02-29T01:16:23.956Z,96984.66
2024-02-29T01:18:52.070Z,96988.59
2024-02-29T01:21:20.205Z,96994.72
2024-02-29T01:23:48.155Z,96998.47
2024-02-29T01:26:16.447Z,96980.84
2024-02-29T01:28:45.747Z,96980.94
2024-02-29T01:31:14.806Z,96979.19
2024-02-29T01:33:42.894Z,96975.09
2024-02-29T01:36:11.097Z,96974.84
2024-02-29T01:38:39.944Z,96975.63
2024-02-29T01:41:08.172Z,96983.25
2024-02-29T01:43:36.511Z,96982.38
2024-02-29T01:46:11.373Z,96980.06
2024-02-29T01:48:40.126Z,96979.63
2024-02-29T01:51:10.047Z,96979.41
2024-02-29T01:53:39.186Z,96970.50
2024-02-29T01:56:08.331Z,96968.66
2024-02-29T01:58:37.212Z,96967.16
2024-02-29T02:01:05.879Z,96972.34
2024-02-29T02:03:34.867Z,96955.44
2024-02-29T02:06:03.037Z,96965.56
2024-02-29T02:08:33.297Z,96965.41
2024-02-29T02:11:01.930Z,96962.66
2024-02-29T02:13:29.961Z,96960.16
2024-02-29T02:15:58.261Z,96959.28
2024-02-29T02:18:26.245Z,96962.72
2024-02-29T02:20:57.607Z,96965.72
2024-02-29T02:23:25.558Z,96961.66
2024-02-29T02:25:58.965Z,96962.41
2024-02-29T02:28:27.262Z,96962.56
2024-02-29T02:30:55.581Z,96963.78
2024-02-29T02:33:23.569Z,96953.44
2024-02-29T02:35:51.728Z,96957.72
2024-02-29T02:38:19.662Z,96961.22
2024-02-29T02:40:47.829Z,96957.25
2024-02-29T02:43:18.610Z,96954.28
2024-02-29T02:45:47.006Z,96962.09
2024-02-29T02:48:15.948Z,96965.19
2024-02-29T02:50:44.785Z,96960.84
2024-02-29T02:53:12.703Z,96965.47
2024-02-29T02:55:41.106Z,96956.66
2024-02-29T02:58:08.981Z,96964.91
2024-02-29T03:00:37.291Z,96955.50
2024-02-29T03:03:05.276Z,96961.28
2024-02-29T03:05:33.746Z,96962.00
2024-02-29T03:08:01.961Z,96963.00
2024-02-29T03:10:30.187Z,96957.03
2024-02-29T03:12:58.027Z,96964.78
2024-02-29T03:15:26.255Z,96957.38
2024-02-29T03:17:57.431Z,96965.13
2024-02-29T03:20:25.684Z,96960.13
2024-02-29T03:22:53.471Z,96962.84
2024-02-29T03:25:21.662Z,96965.03
2024-02-29T03:27:53.195Z,96956.72
2024-02-29T03:30:21.461Z,96969.16
2024-02-29T03:32:49.399Z,96970.56
2024-02-29T03:35:17.811Z,96965.75
2024-02-29T03:37:45.595Z,96963.50
2024-02-29T03:40:14.060Z,96967.09
2024-02-29T03:42:44.335Z,96967.84
2024-02-29T03:45:12.643Z,96961.69
2024-02-29T03:47:40.651Z,96970.38
2024-02-29T03:50:11.667Z,96971.28
2024-02-29T03:52:40.093Z,96975.22
2024-02-29T03:55:09.582Z,96974.44
2024-02-29T03:57:37.683Z,96981.28
2024-02-29T04:00:12.606Z,96982.34
2024-02-29T04:02:43.643Z,96983.97
2024-02-29T04:05:12.051Z,96989.00
2024-02-29T04:07:44.157Z,96983.63
2024-02-29T04:10:12.788Z,96990.00
2024-02-29T04:12:40.808Z,96990.00
2024-02-29T04:15:09.843Z,96989.88
2024-02-29T04:17:37.685Z,96986.22
2024-02-29T04:20:07.261Z,96995.16
2024-02-29T04:22:35.302Z,97001.16
2024-02-29T04:25:03.809Z,96999.22
2024-02-29T04:27:31.811Z,97005.56
2024-02-29T04:30:00.237Z,97005.16
2024-02-29T04:32:28.038Z,97009.56
2024-02-29T04:34:56.416Z,97002.94
2024-02-29T04:37:24.222Z,97003.25
2024-02-29T04:39:52.610Z,97007.25
2024-02-29T04:42:23.439Z,97007.72
2024-02-29T04:44:51.611Z,97010.94
2024-02-29T04:47:20.192Z,97017.28
2024-02-29T04:49:48.730Z,97012.69
2024-02-29T04:52:16.764Z,97010.34
2024-02-29T04:54:45.282Z,97008.78
2024-02-29T04:57:13.325Z,97020.59
2024-02-29T04:59:41.781Z,97014.00
2024-02-29T05:02:11.266Z,97010.19
2024-02-29T05:04:39.468Z,97016.47
2024-02-29T05:07:07.428Z,97012.28
2024-02-29T05:09:35.706Z,97012.78
2024-02-29T05:12:03.735Z,97016.78
2024-02-29T05:20:16.215Z,97013.47
2024-02-29T05:23:05.026Z,97012.38
2024-02-29T05:25:33.471Z,97005.78
2024-02-29T05:28:03.171Z,96995.56
2024-02-29T05:30:31.310Z,97009.69
2024-02-29T05:32:59.558Z,97007.97
2024-02-29T05:35:27.807Z,97009.88
2024-02-29T05:37:58.452Z,97000.66
2024-02-29T05:40:30.964Z,96997.69
2024-02-29T05:42:59.258Z,96996.34
2024-02-29T05:45:27.174Z,96986.50
2024-02-29T05:47:55.495Z,96998.69
2024-02-29T05:50:23.453Z,96991.84
2024-02-29T05:52:51.876Z,96998.28
2024-02-29T05:55:21.901Z,96996.94
2024-02-29T05:57:50.248Z,96994.78
2024-02-29T06:00:23.558Z,96993.28
2024-02-29T06:02:53.204Z,96997.34
2024-02-29T06:05:21.514Z,96992.81
2024-02-29T06:07:49.730Z,96988.44
2024-02-29T06:10:20.861Z,96991.72
2024-02-29T06:12:49.336Z,96996.84
2024-02-29T06:15:17.299Z,96993.78
2024-02-29T06:17:45.715Z,96983.72
2024-02-29T06:20:14.296Z,96985.34
2024-02-29T06:22:43.262Z,96981.16
2024-02-29T06:25:11.785Z,96981.59
2024-02-29T06:27:41.031Z,96986.31
2024-02-29T06:30:10.404Z,96976.22
2024-02-29T06:32:42.020Z,96979.50
2024-02-29T06:35:10.672Z,96990.03
2024-02-29T06:37:43.053Z,96977.22
2024-02-29T06:40:13.159Z,96977.34
2024-02-29T06:42:42.551Z,96976.63
2024-02-29T06:45:11.847Z,96972.00
2024-02-29T06:47:44.317Z,96968.44
2024-02-29T06:50:13.729Z,96970.00
2024-02-29T06:52:42.306Z,96962.69
2024-02-29T06:55:10.718Z,96964.97
2024-02-29T06:57:39.343Z,96963.03
2024-02-29T07:00:07.892Z,96959.16
2024-02-29T07:02:36.237Z,96952.59
2024-02-29T07:05:04.627Z,96958.94
2024-02-29T07:07:33.320Z,96949.53
2024-02-29T07:10:01.528Z,96945.50
2024-02-29T07:12:30.094Z,96944.72
2024-02-29T07:14:58.251Z,96942.94
2024-02-29T07:17:26.440Z,96932.69
2024-02-29T07:19:54.441Z,96936.25
2024-02-29T07:22:22.776Z,96925.28
2024-02-29T07:24:50.757Z,96928.44
2024-02-29T07:27:19.008Z,96927.34
2024-02-29T07:29:48.622Z,96927.00
2024-02-29T07:32:16.813Z,96924.59
2024-02-29T07:34:44.712Z,96921.88
2024-02-29T07:37:12.967Z,96915.25
2024-02-29T07:39:41.053Z,96918.41
2024-02-29T07:42:10.566Z,96916.47
2024-02-29T07:44:38.592Z,96912.13
2024-02-29T07:47:06.839Z,96905.53
2024-02-29T07:49:34.685Z,96905.19
2024-02-29T07:52:03.037Z,96911.84
2024-02-29T07:54:33.706Z,96898.06
2024-02-29T07:57:05.772Z,96898.13
2024-02-29T07:59:33.838Z,96901.25
2024-02-29T08:02:02.463Z,96895.75
2024-02-29T08:04:30.549Z,96892.63
2024-02-29T08:06:58.773Z,96895.38
2024-02-29T08:09:26.793Z,96900.06
2024-02-29T08:11:55.987Z,96902.72
2024-02-29T08:14:25.731Z,96894.19
2024-02-29T08:16:54.290Z,96894.22
2024-02-29T08:19:22.643Z,96889.53
2024-02-29T08:21:53.818Z,96886.41
2024-02-29T08:24:22.086Z,96886.41
2024-02-29T08:26:50.308Z,96882.47
2024-02-29T08:29:21.128Z,96876.22
2024-02-29T08:31:49.702Z,96874.66
2024-02-29T08:34:17.780Z,96869.91
2024-02-29T08:36:46.438Z,96862.06
2024-02-29T08:39:14.462Z,96867.16
2024-02-29T08:41:42.745Z,96864.44
2024-02-29T08:44:10.615Z,96860.16
2024-02-29T08:46:39.019Z,96856.63
2024-02-29T08:49:08.919Z,96853.47
2024-02-29T08:51:37.458Z,96853.47
2024-02-29T08:54:07.536Z,96854.25
2024-02-29T08:56:36.625Z,96849.53
2024-02-29T08:59:04.488Z,96844.81
2024-02-29T09:01:32.900Z,96838.13
2024-02-29T09:04:01.015Z,96840.88
2024-02-29T09:06:39.899Z,96836.97
2024-02-29T09:09:09.830Z,96833.06
2024-02-29T09:11:39.470Z,96832.25
2024-02-29T09:14:07.426Z,96833.41
2024-02-29T09:16:35.721Z,96818.06
2024-02-29T09:19:04.458Z,96821.22
2024-02-29T09:21:33.989Z,96810.22
2024-02-29T09:24:01.966Z,96818.88
2024-02-29T09:26:30.320Z,96814.16
2024-02-29T09:28:58.241Z,96809.81
2024-02-29T09:31:26.588Z,96799.97
2024-02-29T09:33:55.126Z,96805.84
2024-02-29T09:36:23.339Z,96810.97
2024-02-29T09:38:51.265Z,96792.09
2024-02-29T09:43:54.927Z,96798.38
2024-02-29T09:46:23.652Z,96793.22
2024-02-29T09:48:53.692Z,96783.38
2024-02-29T09:51:23.177Z,96787.34
2024-02-29T09:53:54.066Z,96777.06
2024-02-29T09:56:24.661Z,96772.34
2024-02-29T09:58:53.041Z,96775.44
2024-02-29T10:01:21.653Z,96769.59
2024-02-29T10:03:50.256Z,96760.13
2024-02-29T10:06:18.541Z,96758.13
2024-02-29T10:08:46.997Z,96760.03
2024-02-29T10:11:15.024Z,96750.56
2024-02-29T10:13:43.471Z,96753.25
2024-02-29T10:16:15.262Z,96751.03
2024-02-29T10:18:43.740Z,96745.78
2024-02-29T10:21:12.805Z,96739.03
2024-02-29T10:23:41.591Z,96735.16
2024-02-29T10:26:10.436Z,96737.41
2024-02-29T10:28:38.721Z,96731.03
2024-02-29T10:31:06.620Z,96729.06
2024-02-29T10:33:39.925Z,96736.50
2024-02-29T10:36:14.884Z,96726.16
2024-02-29T10:38:43.192Z,96717.84
2024-02-29T10:41:12.473Z,96718.53
2024-02-29T10:43:45.342Z,96711.09
2024-02-29T10:46:16.246Z,96720.53
2024-02-29T10:48:59.440Z,96726.88
2024-02-29T10:51:36.994Z,96711.09
2024-02-29T10:54:16.464Z,96707.41
2024-02-29T10:56:47.875Z,96702.66
2024-02-29T10:59:20.559Z,96695.22
2024-02-29T11:01:49.633Z,96694.78
2024-02-29T11:04:18.173Z,96698.31
2024-02-29T11:06:48.806Z,96687.34
2024-02-29T11:09:28.590Z,96685.22
2024-02-29T11:12:15.037Z,96684.66
2024-02-29T11:14:49.630Z,96682.03
2024-02-29T11:17:18.512Z,96678.84
2024-02-29T11:19:57.770Z,96677.50
2024-02-29T11:22:37.373Z,96677.38
2024-02-29T11:25:12.416Z,96675.00
2024-02-29T11:27:54.675Z,96676.22
2024-02-29T11:30:25.638Z,96674.19
2024-02-29T11:32:54.119Z,96675.84
2024-02-29T11:35:23.261Z,96667.84
2024-02-29T11:37:54.947Z,96667.84
2024-02-29T11:40:25.734Z,96666.34
2024-02-29T11:42:58.773Z,96673.44
2024-02-29T11:45:27.032Z,96665.66
2024-02-29T11:47:55.029Z,96665.50
2024-02-29T11:50:23.464Z,96661.59
2024-02-29T11:52:53.529Z,96663.34
2024-02-29T11:55:22.109Z,96665.19
2024-02-29T11:57:50.330Z,96662.69
2024-02-29T12:00:18.924Z,96653.84
2024-02-29T12:02:47.081Z,96649.47
2024-02-29T12:05:17.845Z,96653.66
2024-02-29T12:07:46.989Z,96648.50
2024-02-29T12:10:16.839Z,96654.44
2024-02-29T12:12:46.190Z,96658.50
2024-02-29T12:15:16.020Z,96653.84
2024-02-29T12:17:44.874Z,96652.28
2024-02-29T12:20:18.498Z,96651.28
2024-02-29T12:22:50.308Z,96660.78
2024-02-29T12:25:23.062Z,96653.31
2024-02-29T12:27:51.229Z,96653.22
2024-02-29T12:30:21.748Z,96651.09
2024-02-29T12:32:55.486Z,96646.00
2024-02-29T12:35:28.676Z,96652.28
2024-02-29T12:37:57.101Z,96645.84
2024-02-29T12:40:27.304Z,96640.88
2024-02-29T12:42:55.531Z,96642.66
2024-02-29T12:45:24.013Z,96644.88
2024-02-29T12:47:52.072Z,96640.75
2024-02-29T12:50:22.520Z,96653.84
2024-02-29T12:52:55.526Z,96647.41
2024-02-29T12:55:24.311Z,96646.63
2024-02-29T12:57:52.285Z,96643.19
2024-02-29T13:00:26.057Z,96645.91
2024-02-29T13:02:54.282Z,96635.09
2024-02-29T13:05:22.674Z,96638.69
2024-02-29T13:07:51.427Z,96642.44
2024-02-29T13:10:21.184Z,96640.41
2024-02-29T13:12:54.468Z,96636.47
2024-02-29T13:15:25.844Z,96639.97
2024-02-29T13:17:53.892Z,96638.53
2024-02-29T13:20:22.168Z,96632.28
2024-02-29T13:22:50.068Z,96644.91
2024-02-29T13:25:18.545Z,96642.16
2024-02-29T13:27:46.461Z,96636.25
2024-02-29T13:30:16.050Z,96651.63
2024-02-29T13:32:45.441Z,96641.00
2024-02-29T13:35:13.831Z,96642.72
2024-02-29T13:37:42.643Z,96639.47
2024-02-29T13:40:12.017Z,96642.97
2024-02-29T13:42:45.342Z,96637.84
2024-02-29T13:45:14.357Z,96650.50
2024-02-29T13:47:52.350Z,96652.00
2024-02-29T13:50:26.707Z,96653.16
2024-02-29T13:52:57.352Z,96634.94
2024-02-29T13:55:34.406Z,96657.19
2024-02-29T13:58:02.453Z,96657.31
2024-02-29T14:00:32.450Z,96656.56
2024-02-29T14:03:00.435Z,96653.97
2024-02-29T14:05:28.728Z,96650.72
2024-02-29T14:07:57.289Z,96654.69
2024-02-29T14:10:25.689Z,96657.06
2024-02-29T14:12:53.840Z,96659.63
2024-02-29T14:15:23.477Z,96658.06
2024-02-29T14:17:52.024Z,96669.94
2024-02-29T14:20:21.434Z,96668.06
2024-02-29T14:22:49.471Z,96671.19
2024-02-29T14:25:36.416Z,96662.16
2024-02-29T14:28:04.979Z,96669.53
2024-02-29T14:30:40.945Z,96675.69
2024-02-29T14:33:58.606Z,96678.97
2024-02-29T14:39:42.895Z,96669.94
2024-02-29T14:39:57.658Z,96680.88
2024-02-29T14:42:26.187Z,96686.66
2024-02-29T14:44:54.556Z,96685.94
2024-02-29T14:47:23.493Z,96683.28
2024-02-29T14:49:52.552Z,96694.47
2024-02-29T14:52:20.676Z,96699.47
2024-02-29T14:54:49.748Z,96704.22
2024-02-29T14:57:17.758Z,96701.41
2024-02-29T14:59:47.987Z,96704.16
2024-02-29T15:02:16.523Z,96710.59
2024-02-29T15:04:45.735Z,96714.06
2024-02-29T15:07:14.302Z,96712.53
2024-02-29T15:09:42.704Z,96721.19
2024-02-29T15:12:10.654Z,96724.69
2024-02-29T15:14:39.071Z,96726.38
2024-02-29T15:17:06.981Z,96728.25
2024-02-29T15:19:36.105Z,96715.97
2024-02-29T15:22:04.419Z,96728.97
2024-02-29T15:24:32.905Z,96731.25
2024-02-29T15:27:01.018Z,96734.06
2024-02-29T15:29:29.532Z,96733.66
2024-02-29T15:31:57.367Z,96743.25
2024-02-29T15:34:25.916Z,96742.03
2024-02-29T15:36:55.127Z,96747.94
2024-02-29T15:39:23.666Z,96751.16
2024-02-29T15:41:51.700Z,96750.72
2024-02-29T15:44:20.132Z,96752.78
2024-02-29T15:46:48.079Z,96751.69
2024-02-29T15:49:16.494Z,96765.75
2024-02-29T15:51:44.462Z,96758.25
2024-02-29T15:54:12.753Z,96770.97
2024-02-29T15:56:40.754Z,96774.81
2024-02-29T15:59:10.640Z,96767.41
2024-02-29T16:01:38.835Z,96779.53
2024-02-29T16:04:07.436Z,96770.22
2024-02-29T16:06:35.386Z,96786.66
2024-02-29T16:09:03.689Z,96787.47
2024-02-29T16:11:31.670Z,96782.69
2024-02-29T16:13:59.986Z,96789.16
2024-02-29T16:16:29.425Z,96783.06
2024-02-29T16:18:57.818Z,96786.72
2024-02-29T16:21:28.132Z,96785.50
2024-02-29T16:23:56.791Z,96793.13
2024-02-29T16:26:24.902Z,96793.91
2024-02-29T16:28:55.402Z,96795.53
2024-02-29T16:31:23.416Z,96793.22
2024-02-29T16:33:51.709Z,96799.47
2024-02-29T16:36:20.353Z,96807.41
2024-02-29T16:38:48.608Z,96810.44
2024-02-29T16:41:16.512Z,96826.28
2024-02-29T16:43:44.881Z,96821.53
2024-02-29T16:46:13.176Z,96819.59
2024-02-29T16:48:41.864Z,96829.75
2024-02-29T16:51:09.907Z,96839.69
2024-02-29T16:53:38.077Z,96831.38
2024-02-29T16:56:06.117Z,96841.59
2024-02-29T16:58:34.518Z,96845.22
2024-02-29T17:01:05.585Z,96849.91
2024-02-29T17:03:39.053Z,96851.50
2024-02-29T17:06:10.472Z,96851.03
2024-02-29T17:08:38.912Z,96853.06
2024-02-29T17:11:07.822Z,96851.53
2024-02-29T17:13:44.730Z,96850.78
2024-02-29T17:16:14.414Z,96859.47
2024-02-29T17:18:43.512Z,96864.56
2024-02-29T17:21:12.145Z,96873.56
2024-02-29T17:23:40.693Z,96875.66
2024-02-29T17:26:21.776Z,96880.38
2024-02-29T17:28:52.812Z,96879.19
2024-02-29T17:31:24.106Z,96878.09
2024-02-29T17:33:53.112Z,96874.50
2024-02-29T17:36:21.018Z,96884.41
2024-02-29T17:38:49.395Z,96889.53
2024-02-29T17:41:17.720Z,96896.59
2024-02-29T17:43:46.087Z,96893.44
2024-02-29T17:46:14.082Z,96908.38
2024-02-29T17:48:44.572Z,96898.91
2024-02-29T17:51:12.513Z,96913.09
2024-02-29T17:53:41.630Z,96912.28
2024-02-29T17:56:09.610Z,96912.69
2024-02-29T17:58:38.150Z,96909.13
2024-02-29T18:03:52.514Z,96916.63
2024-02-29T18:06:20.525Z,96918.56
2024-02-29T18:08:49.860Z,96924.09
2024-02-29T18:11:18.016Z,96926.09
2024-02-29T18:13:46.280Z,96925.66
2024-02-29T18:16:15.526Z,96927.31
2024-02-29T18:18:44.571Z,96934.31
2024-02-29T18:21:19.812Z,96928.06
2024-02-29T18:23:48.402Z,96924.94
2024-02-29T18:26:16.639Z,96933.22
2024-02-29T18:28:45.032Z,96932.81
2024-02-29T18:31:13.590Z,96937.16
2024-02-29T18:33:42.674Z,96933.56
2024-02-29T18:36:11.164Z,96939.91
2024-02-29T18:38:39.493Z,96943.00
2024-02-29T18:41:07.361Z,96940.25
2024-02-29T18:43:38.158Z,96936.31
2024-02-29T18:46:07.158Z,96952.03
2024-02-29T18:48:41.025Z,96950.09
2024-02-29T18:51:10.165Z,96949.31
2024-02-29T18:54:04.408Z,96951.69
2024-02-29T18:56:32.767Z,96955.19
2024-02-29T18:59:01.118Z,96959.91
2024-02-29T19:01:29.145Z,96954.41
2024-02-29T19:03:58.587Z,96959.13
2024-02-29T19:06:26.971Z,96970.50
2024-02-29T19:08:55.147Z,96962.66
2024-02-29T19:11:23.366Z,96957.19
2024-02-29T19:13:52.088Z,96965.41
2024-02-29T19:16:20.739Z,96964.22
2024-02-29T19:18:49.191Z,96968.56
2024-02-29T19:21:17.235Z,96970.50
2024-02-29T19:23:45.724Z,96962.63
2024-02-29T19:26:14.580Z,96967.34
2024-02-29T19:28:48.939Z,96949.63
